sensor_id;sensor_type;location;lat;lon;timestamp;temperature;humidity
67942;SHT31;54731;42.600;23.476;2022-07-23T00:02:23;22.19;47.85
67942;SHT31;54731;42.600;23.476;2022-07-23T00:04:49;22.08;48.20
67942;SHT31;54731;42.600;23.476;2022-07-23T00:07:14;22.00;48.36
67942;SHT31;54731;42.600;23.476;2022-07-23T00:09:40;21.99;48.55
67942;SHT31;54731;42.600;23.476;2022-07-23T00:12:05;21.98;48.74
67942;SHT31;54731;42.600;23.476;2022-07-23T00:14:31;21.98;48.55
67942;SHT31;54731;42.600;23.476;2022-07-23T00:16:56;22.02;48.38
67942;SHT31;54731;42.600;23.476;2022-07-23T00:19:21;21.98;48.76
67942;SHT31;54731;42.600;23.476;2022-07-23T00:21:47;21.95;48.81
67942;SHT31;54731;42.600;23.476;2022-07-23T00:24:12;21.98;48.38
67942;SHT31;54731;42.600;23.476;2022-07-23T00:26:38;21.96;48.57
67942;SHT31;54731;42.600;23.476;2022-07-23T00:29:03;21.88;48.83
67942;SHT31;54731;42.600;23.476;2022-07-23T00:31:28;21.82;49.27
67942;SHT31;54731;42.600;23.476;2022-07-23T00:33:54;21.82;49.08
67942;SHT31;54731;42.600;23.476;2022-07-23T00:36:23;21.81;48.86
67942;SHT31;54731;42.600;23.476;2022-07-23T00:38:49;21.79;48.78
67942;SHT31;54731;42.600;23.476;2022-07-23T00:41:15;21.79;49.24
67942;SHT31;54731;42.600;23.476;2022-07-23T00:43:40;21.75;50.04
67942;SHT31;54731;42.600;23.476;2022-07-23T00:46:06;21.69;50.80
67942;SHT31;54731;42.600;23.476;2022-07-23T00:48:32;21.63;51.23
67942;SHT31;54731;42.600;23.476;2022-07-23T00:50:57;21.52;50.92
67942;SHT31;54731;42.600;23.476;2022-07-23T00:53:23;21.52;50.67
67942;SHT31;54731;42.600;23.476;2022-07-23T00:55:48;21.49;50.91
67942;SHT31;54731;42.600;23.476;2022-07-23T00:58:15;21.45;51.24
67942;SHT31;54731;42.600;23.476;2022-07-23T01:00:41;21.39;51.06
67942;SHT31;54731;42.600;23.476;2022-07-23T01:03:07;21.39;50.68
67942;SHT31;54731;42.600;23.476;2022-07-23T01:05:32;21.42;50.78
67942;SHT31;54731;42.600;23.476;2022-07-23T01:07:58;21.41;50.52
67942;SHT31;54731;42.600;23.476;2022-07-23T01:10:24;21.35;50.82
67942;SHT31;54731;42.600;23.476;2022-07-23T01:12:56;21.34;50.61
67942;SHT31;54731;42.600;23.476;2022-07-23T01:15:22;21.34;50.52
67942;SHT31;54731;42.600;23.476;2022-07-23T01:17:47;21.32;50.94
67942;SHT31;54731;42.600;23.476;2022-07-23T01:20:13;21.28;50.88
67942;SHT31;54731;42.600;23.476;2022-07-23T01:22:38;21.28;50.84
67942;SHT31;54731;42.600;23.476;2022-07-23T01:25:04;21.27;50.95
67942;SHT31;54731;42.600;23.476;2022-07-23T01:27:30;21.21;51.03
67942;SHT31;54731;42.600;23.476;2022-07-23T01:29:57;21.21;51.27
67942;SHT31;54731;42.600;23.476;2022-07-23T01:32:24;21.25;50.76
67942;SHT31;54731;42.600;23.476;2022-07-23T01:34:50;21.21;50.98
67942;SHT31;54731;42.600;23.476;2022-07-23T01:37:15;21.25;50.72
67942;SHT31;54731;42.600;23.476;2022-07-23T01:39:41;21.21;51.05
67942;SHT31;54731;42.600;23.476;2022-07-23T01:42:06;21.21;50.93
67942;SHT31;54731;42.600;23.476;2022-07-23T01:44:31;21.17;51.15
67942;SHT31;54731;42.600;23.476;2022-07-23T01:46:57;21.15;51.02
67942;SHT31;54731;42.600;23.476;2022-07-23T01:49:22;21.12;51.18
67942;SHT31;54731;42.600;23.476;2022-07-23T01:51:48;21.14;51.52
67942;SHT31;54731;42.600;23.476;2022-07-23T01:54:30;21.17;51.48
67942;SHT31;54731;42.600;23.476;2022-07-23T01:56:56;21.17;51.22
67942;SHT31;54731;42.600;23.476;2022-07-23T01:59:23;21.12;51.56
67942;SHT31;54731;42.600;23.476;2022-07-23T02:01:49;21.10;51.25
67942;SHT31;54731;42.600;23.476;2022-07-23T02:04:16;21.10;51.01
67942;SHT31;54731;42.600;23.476;2022-07-23T02:06:42;21.08;51.01
67942;SHT31;54731;42.600;23.476;2022-07-23T02:09:07;21.08;51.08
67942;SHT31;54731;42.600;23.476;2022-07-23T02:11:33;21.07;51.62
67942;SHT31;54731;42.600;23.476;2022-07-23T02:13:58;21.04;51.57
67942;SHT31;54731;42.600;23.476;2022-07-23T02:16:24;21.03;51.20
67942;SHT31;54731;42.600;23.476;2022-07-23T02:18:49;21.03;51.94
67942;SHT31;54731;42.600;23.476;2022-07-23T02:21:15;21.01;51.97
67942;SHT31;54731;42.600;23.476;2022-07-23T02:23:40;20.93;52.49
67942;SHT31;54731;42.600;23.476;2022-07-23T02:26:06;20.87;52.15
67942;SHT31;54731;42.600;23.476;2022-07-23T02:28:31;20.80;53.51
67942;SHT31;54731;42.600;23.476;2022-07-23T02:30:56;20.74;53.50
67942;SHT31;54731;42.600;23.476;2022-07-23T02:33:22;20.70;53.34
67942;SHT31;54731;42.600;23.476;2022-07-23T02:35:47;20.67;53.39
67942;SHT31;54731;42.600;23.476;2022-07-23T02:38:13;20.62;53.79
67942;SHT31;54731;42.600;23.476;2022-07-23T02:40:38;20.56;54.31
67942;SHT31;54731;42.600;23.476;2022-07-23T02:43:04;20.53;53.63
67942;SHT31;54731;42.600;23.476;2022-07-23T02:45:29;20.46;53.30
67942;SHT31;54731;42.600;23.476;2022-07-23T02:47:54;20.37;53.69
67942;SHT31;54731;42.600;23.476;2022-07-23T02:50:20;20.37;54.04
67942;SHT31;54731;42.600;23.476;2022-07-23T02:52:45;20.36;53.97
67942;SHT31;54731;42.600;23.476;2022-07-23T02:55:11;20.37;54.27
67942;SHT31;54731;42.600;23.476;2022-07-23T02:57:37;20.34;54.55
67942;SHT31;54731;42.600;23.476;2022-07-23T03:00:04;20.30;54.29
67942;SHT31;54731;42.600;23.476;2022-07-23T03:02:30;20.28;55.46
67942;SHT31;54731;42.600;23.476;2022-07-23T03:04:56;20.23;55.69
67942;SHT31;54731;42.600;23.476;2022-07-23T03:07:21;20.22;55.17
67942;SHT31;54731;42.600;23.476;2022-07-23T03:09:46;20.19;55.36
67942;SHT31;54731;42.600;23.476;2022-07-23T03:12:12;20.12;55.25
67942;SHT31;54731;42.600;23.476;2022-07-23T03:14:37;20.06;55.90
67942;SHT31;54731;42.600;23.476;2022-07-23T03:17:03;20.05;56.75
67942;SHT31;54731;42.600;23.476;2022-07-23T03:19:28;20.04;56.30
67942;SHT31;54731;42.600;23.476;2022-07-23T03:21:54;19.96;56.50
67942;SHT31;54731;42.600;23.476;2022-07-23T03:24:19;19.92;56.46
67942;SHT31;54731;42.600;23.476;2022-07-23T03:26:45;19.92;57.18
67942;SHT31;54731;42.600;23.476;2022-07-23T03:29:10;19.89;57.93
67942;SHT31;54731;42.600;23.476;2022-07-23T03:31:36;19.86;58.71
67942;SHT31;54731;42.600;23.476;2022-07-23T03:34:03;19.86;57.45
67942;SHT31;54731;42.600;23.476;2022-07-23T03:36:28;19.82;57.14
67942;SHT31;54731;42.600;23.476;2022-07-23T03:38:53;19.78;58.52
67942;SHT31;54731;42.600;23.476;2022-07-23T03:41:19;19.69;59.04
67942;SHT31;54731;42.600;23.476;2022-07-23T03:43:45;19.69;58.58
67942;SHT31;54731;42.600;23.476;2022-07-23T03:46:11;19.69;57.86
67942;SHT31;54731;42.600;23.476;2022-07-23T03:48:36;19.69;58.01
67942;SHT31;54731;42.600;23.476;2022-07-23T03:51:02;19.68;58.72
67942;SHT31;54731;42.600;23.476;2022-07-23T03:53:28;19.64;59.41
67942;SHT31;54731;42.600;23.476;2022-07-23T03:55:53;19.64;59.15
67942;SHT31;54731;42.600;23.476;2022-07-23T03:58:18;19.65;59.30
67942;SHT31;54731;42.600;23.476;2022-07-23T04:00:44;19.62;58.61
67942;SHT31;54731;42.600;23.476;2022-07-23T04:03:09;19.57;58.59
67942;SHT31;54731;42.600;23.476;2022-07-23T04:05:35;19.57;58.83
67942;SHT31;54731;42.600;23.476;2022-07-23T04:08:00;19.59;58.80
67942;SHT31;54731;42.600;23.476;2022-07-23T04:10:26;19.57;59.22
67942;SHT31;54731;42.600;23.476;2022-07-23T04:12:51;19.55;59.51
67942;SHT31;54731;42.600;23.476;2022-07-23T04:15:16;19.51;59.49
67942;SHT31;54731;42.600;23.476;2022-07-23T04:17:42;19.47;59.33
67942;SHT31;54731;42.600;23.476;2022-07-23T04:20:09;19.46;59.68
67942;SHT31;54731;42.600;23.476;2022-07-23T04:22:35;19.48;59.59
67942;SHT31;54731;42.600;23.476;2022-07-23T04:25:01;19.46;60.35
67942;SHT31;54731;42.600;23.476;2022-07-23T04:27:27;19.50;60.46
67942;SHT31;54731;42.600;23.476;2022-07-23T04:29:52;19.48;60.31
67942;SHT31;54731;42.600;23.476;2022-07-23T04:32:18;19.53;59.76
67942;SHT31;54731;42.600;23.476;2022-07-23T04:34:43;19.51;60.40
67942;SHT31;54731;42.600;23.476;2022-07-23T04:37:08;19.54;59.85
67942;SHT31;54731;42.600;23.476;2022-07-23T04:39:34;19.50;60.27
67942;SHT31;54731;42.600;23.476;2022-07-23T04:41:59;19.54;61.13
67942;SHT31;54731;42.600;23.476;2022-07-23T04:44:25;19.57;61.39
67942;SHT31;54731;42.600;23.476;2022-07-23T04:46:50;19.61;61.37
67942;SHT31;54731;42.600;23.476;2022-07-23T04:49:16;19.61;60.18
67942;SHT31;54731;42.600;23.476;2022-07-23T04:51:41;19.68;60.35
67942;SHT31;54731;42.600;23.476;2022-07-23T04:54:06;19.74;60.18
67942;SHT31;54731;42.600;23.476;2022-07-23T04:56:32;19.78;59.18
67942;SHT31;54731;42.600;23.476;2022-07-23T04:58:57;19.83;59.34
67942;SHT31;54731;42.600;23.476;2022-07-23T05:01:23;19.85;58.36
67942;SHT31;54731;42.600;23.476;2022-07-23T05:03:48;19.92;58.65
67942;SHT31;54731;42.600;23.476;2022-07-23T05:06:15;19.96;58.43
67942;SHT31;54731;42.600;23.476;2022-07-23T05:08:40;19.99;58.36
67942;SHT31;54731;42.600;23.476;2022-07-23T05:11:05;20.06;58.14
67942;SHT31;54731;42.600;23.476;2022-07-23T05:13:31;20.13;58.07
67942;SHT31;54731;42.600;23.476;2022-07-23T05:15:56;20.16;57.35
67942;SHT31;54731;42.600;23.476;2022-07-23T05:18:22;20.25;57.49
67942;SHT31;54731;42.600;23.476;2022-07-23T05:20:47;20.29;58.07
67942;SHT31;54731;42.600;23.476;2022-07-23T05:23:12;20.29;58.86
67942;SHT31;54731;42.600;23.476;2022-07-23T05:25:39;20.36;59.91
67942;SHT31;54731;42.600;23.476;2022-07-23T05:28:04;20.44;59.12
67942;SHT31;54731;42.600;23.476;2022-07-23T05:30:30;20.52;59.19
67942;SHT31;54731;42.600;23.476;2022-07-23T05:32:55;20.59;59.99
67942;SHT31;54731;42.600;23.476;2022-07-23T05:35:21;20.66;59.83
67942;SHT31;54731;42.600;23.476;2022-07-23T05:37:46;20.70;59.53
67942;SHT31;54731;42.600;23.476;2022-07-23T05:40:12;20.81;58.30
67942;SHT31;54731;42.600;23.476;2022-07-23T05:42:39;20.90;58.25
67942;SHT31;54731;42.600;23.476;2022-07-23T05:45:06;20.97;57.87
67942;SHT31;54731;42.600;23.476;2022-07-23T05:47:41;21.07;58.92
67942;SHT31;54731;42.600;23.476;2022-07-23T05:50:10;21.08;57.31
67942;SHT31;54731;42.600;23.476;2022-07-23T05:52:36;21.20;58.01
67942;SHT31;54731;42.600;23.476;2022-07-23T05:55:02;21.25;57.63
67942;SHT31;54731;42.600;23.476;2022-07-23T05:57:27;21.31;57.46
67942;SHT31;54731;42.600;23.476;2022-07-23T05:59:52;21.44;56.89
67942;SHT31;54731;42.600;23.476;2022-07-23T06:02:18;21.54;57.47
67942;SHT31;54731;42.600;23.476;2022-07-23T06:04:43;21.58;56.85
67942;SHT31;54731;42.600;23.476;2022-07-23T06:07:09;21.69;57.62
67942;SHT31;54731;42.600;23.476;2022-07-23T06:09:34;21.75;57.90
67942;SHT31;54731;42.600;23.476;2022-07-23T06:11:59;21.81;57.68
67942;SHT31;54731;42.600;23.476;2022-07-23T06:14:25;21.83;56.61
67942;SHT31;54731;42.600;23.476;2022-07-23T06:16:50;21.85;56.29
67942;SHT31;54731;42.600;23.476;2022-07-23T06:19:16;21.92;57.02
67942;SHT31;54731;42.600;23.476;2022-07-23T06:21:42;22.00;58.56
67942;SHT31;54731;42.600;23.476;2022-07-23T06:24:07;22.09;59.34
67942;SHT31;54731;42.600;23.476;2022-07-23T06:26:33;22.19;56.82
67942;SHT31;54731;42.600;23.476;2022-07-23T06:28:58;22.26;56.94
67942;SHT31;54731;42.600;23.476;2022-07-23T06:31:24;22.35;56.17
67942;SHT31;54731;42.600;23.476;2022-07-23T06:33:49;22.40;58.21
67942;SHT31;54731;42.600;23.476;2022-07-23T06:36:15;22.44;56.70
67942;SHT31;54731;42.600;23.476;2022-07-23T06:38:40;22.54;56.94
67942;SHT31;54731;42.600;23.476;2022-07-23T06:41:06;22.68;56.67
67942;SHT31;54731;42.600;23.476;2022-07-23T06:43:31;22.75;55.46
67942;SHT31;54731;42.600;23.476;2022-07-23T06:45:56;22.80;55.55
67942;SHT31;54731;42.600;23.476;2022-07-23T06:48:22;22.86;55.74
67942;SHT31;54731;42.600;23.476;2022-07-23T06:50:48;22.88;56.10
67942;SHT31;54731;42.600;23.476;2022-07-23T06:53:13;22.97;55.60
67942;SHT31;54731;42.600;23.476;2022-07-23T06:55:39;23.03;55.77
67942;SHT31;54731;42.600;23.476;2022-07-23T06:58:05;23.04;55.87
67942;SHT31;54731;42.600;23.476;2022-07-23T07:00:31;23.11;55.10
67942;SHT31;54731;42.600;23.476;2022-07-23T07:02:57;23.18;55.44
67942;SHT31;54731;42.600;23.476;2022-07-23T07:05:23;23.26;55.72
67942;SHT31;54731;42.600;23.476;2022-07-23T07:07:50;23.32;56.63
67942;SHT31;54731;42.600;23.476;2022-07-23T07:10:15;23.38;54.86
67942;SHT31;54731;42.600;23.476;2022-07-23T07:12:42;23.44;55.73
67942;SHT31;54731;42.600;23.476;2022-07-23T07:15:08;23.48;55.98
67942;SHT31;54731;42.600;23.476;2022-07-23T07:17:34;23.49;54.61
67942;SHT31;54731;42.600;23.476;2022-07-23T07:19:59;23.58;55.37
67942;SHT31;54731;42.600;23.476;2022-07-23T07:22:24;23.61;55.33
67942;SHT31;54731;42.600;23.476;2022-07-23T07:24:50;23.66;54.28
67942;SHT31;54731;42.600;23.476;2022-07-23T07:27:15;23.72;54.93
67942;SHT31;54731;42.600;23.476;2022-07-23T07:29:41;23.86;52.96
67942;SHT31;54731;42.600;23.476;2022-07-23T07:32:06;23.89;54.35
67942;SHT31;54731;42.600;23.476;2022-07-23T07:34:31;23.96;53.83
67942;SHT31;54731;42.600;23.476;2022-07-23T07:36:57;24.03;54.40
67942;SHT31;54731;42.600;23.476;2022-07-23T07:39:22;24.07;53.85
67942;SHT31;54731;42.600;23.476;2022-07-23T07:41:48;24.16;54.36
67942;SHT31;54731;42.600;23.476;2022-07-23T07:44:13;24.23;54.53
67942;SHT31;54731;42.600;23.476;2022-07-23T07:46:39;24.31;53.79
67942;SHT31;54731;42.600;23.476;2022-07-23T07:49:04;24.36;53.08
67942;SHT31;54731;42.600;23.476;2022-07-23T07:51:29;24.37;53.39
67942;SHT31;54731;42.600;23.476;2022-07-23T07:53:55;24.39;53.30
67942;SHT31;54731;42.600;23.476;2022-07-23T07:56:21;24.49;52.39
67942;SHT31;54731;42.600;23.476;2022-07-23T07:58:46;24.54;50.87
67942;SHT31;54731;42.600;23.476;2022-07-23T08:01:12;24.72;47.58
67942;SHT31;54731;42.600;23.476;2022-07-23T08:03:37;24.87;50.14
67942;SHT31;54731;42.600;23.476;2022-07-23T08:06:03;24.92;50.24
67942;SHT31;54731;42.600;23.476;2022-07-23T08:08:28;25.04;50.50
67942;SHT31;54731;42.600;23.476;2022-07-23T08:10:53;25.14;49.27
67942;SHT31;54731;42.600;23.476;2022-07-23T08:13:19;25.21;46.64
67942;SHT31;54731;42.600;23.476;2022-07-23T08:15:44;25.31;45.88
67942;SHT31;54731;42.600;23.476;2022-07-23T08:18:10;25.34;44.94
67942;SHT31;54731;42.600;23.476;2022-07-23T08:20:36;25.42;42.90
67942;SHT31;54731;42.600;23.476;2022-07-23T08:23:06;25.47;44.03
67942;SHT31;54731;42.600;23.476;2022-07-23T08:25:39;25.52;47.08
67942;SHT31;54731;42.600;23.476;2022-07-23T08:28:07;25.66;44.64
67942;SHT31;54731;42.600;23.476;2022-07-23T08:30:34;25.76;45.82
67942;SHT31;54731;42.600;23.476;2022-07-23T08:33:02;25.77;45.66
67942;SHT31;54731;42.600;23.476;2022-07-23T08:35:38;25.82;46.86
67942;SHT31;54731;42.600;23.476;2022-07-23T08:38:07;25.89;46.53
67942;SHT31;54731;42.600;23.476;2022-07-23T08:40:34;26.00;46.36
67942;SHT31;54731;42.600;23.476;2022-07-23T08:43:04;26.07;46.58
67942;SHT31;54731;42.600;23.476;2022-07-23T08:45:31;26.20;44.77
67942;SHT31;54731;42.600;23.476;2022-07-23T08:48:00;26.28;43.56
67942;SHT31;54731;42.600;23.476;2022-07-23T08:50:26;26.38;43.22
67942;SHT31;54731;42.600;23.476;2022-07-23T08:52:53;26.41;42.93
67942;SHT31;54731;42.600;23.476;2022-07-23T08:55:20;26.47;43.65
67942;SHT31;54731;42.600;23.476;2022-07-23T08:57:48;26.54;43.21
67942;SHT31;54731;42.600;23.476;2022-07-23T09:00:14;26.70;41.50
67942;SHT31;54731;42.600;23.476;2022-07-23T09:02:42;26.80;42.23
67942;SHT31;54731;42.600;23.476;2022-07-23T09:05:09;26.85;40.79
67942;SHT31;54731;42.600;23.476;2022-07-23T09:07:36;26.92;43.23
67942;SHT31;54731;42.600;23.476;2022-07-23T09:10:09;27.02;41.33
67942;SHT31;54731;42.600;23.476;2022-07-23T09:12:36;27.05;39.86
67942;SHT31;54731;42.600;23.476;2022-07-23T09:15:07;27.13;41.32
67942;SHT31;54731;42.600;23.476;2022-07-23T09:17:38;27.25;41.26
67942;SHT31;54731;42.600;23.476;2022-07-23T09:20:10;27.36;40.57
67942;SHT31;54731;42.600;23.476;2022-07-23T09:22:35;27.42;41.58
67942;SHT31;54731;42.600;23.476;2022-07-23T09:25:08;27.57;39.06
67942;SHT31;54731;42.600;23.476;2022-07-23T09:30:19;27.74;39.10
67942;SHT31;54731;42.600;23.476;2022-07-23T09:33:03;27.84;39.09
67942;SHT31;54731;42.600;23.476;2022-07-23T09:35:53;27.96;36.60
67942;SHT31;54731;42.600;23.476;2022-07-23T09:38:20;28.01;39.27
67942;SHT31;54731;42.600;23.476;2022-07-23T09:40:46;28.07;38.34
67942;SHT31;54731;42.600;23.476;2022-07-23T09:43:26;28.18;36.24
67942;SHT31;54731;42.600;23.476;2022-07-23T09:45:53;28.31;38.04
67942;SHT31;54731;42.600;23.476;2022-07-23T09:48:18;28.47;36.32
67942;SHT31;54731;42.600;23.476;2022-07-23T09:50:44;28.59;36.62
67942;SHT31;54731;42.600;23.476;2022-07-23T09:53:24;28.68;36.03
67942;SHT31;54731;42.600;23.476;2022-07-23T09:55:51;28.75;35.55
67942;SHT31;54731;42.600;23.476;2022-07-23T09:58:20;28.89;37.40
67942;SHT31;54731;42.600;23.476;2022-07-23T10:00:47;29.05;34.46
67942;SHT31;54731;42.600;23.476;2022-07-23T10:03:14;29.13;37.59
67942;SHT31;54731;42.600;23.476;2022-07-23T10:05:41;29.23;37.27
67942;SHT31;54731;42.600;23.476;2022-07-23T10:08:11;29.27;36.45
67942;SHT31;54731;42.600;23.476;2022-07-23T10:10:39;29.34;35.01
67942;SHT31;54731;42.600;23.476;2022-07-23T10:13:04;29.50;34.34
67942;SHT31;54731;42.600;23.476;2022-07-23T10:15:50;29.64;35.42
67942;SHT31;54731;42.600;23.476;2022-07-23T10:18:16;29.73;33.25
67942;SHT31;54731;42.600;23.476;2022-07-23T10:20:42;29.83;31.01
67942;SHT31;54731;42.600;23.476;2022-07-23T10:26:02;30.07;31.62
67942;SHT31;54731;42.600;23.476;2022-07-23T10:36:59;30.66;31.11
67942;SHT31;54731;42.600;23.476;2022-07-23T10:39:33;30.83;28.46
67942;SHT31;54731;42.600;23.476;2022-07-23T10:42:12;30.99;29.73
67942;SHT31;54731;42.600;23.476;2022-07-23T10:44:42;31.27;30.41
67942;SHT31;54731;42.600;23.476;2022-07-23T10:47:09;31.54;31.25
67942;SHT31;54731;42.600;23.476;2022-07-23T10:49:53;31.71;29.42
67942;SHT31;54731;42.600;23.476;2022-07-23T10:52:24;31.87;28.72
67942;SHT31;54731;42.600;23.476;2022-07-23T10:54:55;31.90;27.22
67942;SHT31;54731;42.600;23.476;2022-07-23T10:57:30;31.87;28.64
67942;SHT31;54731;42.600;23.476;2022-07-23T11:02:33;32.10;28.63
67942;SHT31;54731;42.600;23.476;2022-07-23T11:05:01;32.24;27.98
67942;SHT31;54731;42.600;23.476;2022-07-23T11:07:27;32.35;26.93
67942;SHT31;54731;42.600;23.476;2022-07-23T11:09:53;32.54;27.29
67942;SHT31;54731;42.600;23.476;2022-07-23T11:17:32;33.09;24.49
67942;SHT31;54731;42.600;23.476;2022-07-23T11:25:14;33.64;21.37
67942;SHT31;54731;42.600;23.476;2022-07-23T11:27:40;34.08;23.88
67942;SHT31;54731;42.600;23.476;2022-07-23T11:30:07;34.52;24.37
67942;SHT31;54731;42.600;23.476;2022-07-23T11:32:40;34.85;21.09
67942;SHT31;54731;42.600;23.476;2022-07-23T11:35:44;35.22;20.98
67942;SHT31;54731;42.600;23.476;2022-07-23T11:38:20;35.50;19.33
67942;SHT31;54731;42.600;23.476;2022-07-23T11:40:48;35.73;18.85
67942;SHT31;54731;42.600;23.476;2022-07-23T11:43:14;36.14;20.54
67942;SHT31;54731;42.600;23.476;2022-07-23T11:45:58;36.35;18.69
67942;SHT31;54731;42.600;23.476;2022-07-23T11:48:26;36.68;16.72
67942;SHT31;54731;42.600;23.476;2022-07-23T11:50:53;36.96;19.48
67942;SHT31;54731;42.600;23.476;2022-07-23T11:55:52;38.10;19.09
67942;SHT31;54731;42.600;23.476;2022-07-23T11:58:18;38.32;18.33
67942;SHT31;54731;42.600;23.476;2022-07-23T12:00:44;38.88;19.43
67942;SHT31;54731;42.600;23.476;2022-07-23T12:03:09;39.38;20.57
67942;SHT31;54731;42.600;23.476;2022-07-23T12:05:36;39.45;18.47
67942;SHT31;54731;42.600;23.476;2022-07-23T12:08:04;39.46;17.46
67942;SHT31;54731;42.600;23.476;2022-07-23T12:13:01;39.83;19.51
67942;SHT31;54731;42.600;23.476;2022-07-23T12:15:41;40.25;16.41
67942;SHT31;54731;42.600;23.476;2022-07-23T12:18:12;40.31;16.00
67942;SHT31;54731;42.600;23.476;2022-07-23T12:20:41;40.15;16.82
67942;SHT31;54731;42.600;23.476;2022-07-23T12:23:09;40.34;17.43
67942;SHT31;54731;42.600;23.476;2022-07-23T12:25:41;40.01;15.74
67942;SHT31;54731;42.600;23.476;2022-07-23T12:28:15;40.20;16.18
67942;SHT31;54731;42.600;23.476;2022-07-23T12:33:10;40.94;16.37
67942;SHT31;54731;42.600;23.476;2022-07-23T12:35:45;41.27;15.41
67942;SHT31;54731;42.600;23.476;2022-07-23T12:38:16;41.57;15.75
67942;SHT31;54731;42.600;23.476;2022-07-23T12:40:45;41.43;14.08
67942;SHT31;54731;42.600;23.476;2022-07-23T12:43:22;41.60;15.37
67942;SHT31;54731;42.600;23.476;2022-07-23T12:46:02;41.67;16.31
67942;SHT31;54731;42.600;23.476;2022-07-23T12:48:29;41.76;14.28
67942;SHT31;54731;42.600;23.476;2022-07-23T12:51:01;42.04;15.65
67942;SHT31;54731;42.600;23.476;2022-07-23T12:53:28;42.00;16.27
67942;SHT31;54731;42.600;23.476;2022-07-23T12:56:07;41.43;14.48
67942;SHT31;54731;42.600;23.476;2022-07-23T12:58:50;41.77;16.19
67942;SHT31;54731;42.600;23.476;2022-07-23T13:03:57;41.03;16.23
67942;SHT31;54731;42.600;23.476;2022-07-23T13:06:23;40.86;14.43
67942;SHT31;54731;42.600;23.476;2022-07-23T13:08:49;41.13;15.05
67942;SHT31;54731;42.600;23.476;2022-07-23T13:11:14;41.50;15.58
67942;SHT31;54731;42.600;23.476;2022-07-23T13:13:41;41.86;13.88
67942;SHT31;54731;42.600;23.476;2022-07-23T13:16:06;41.87;12.96
67942;SHT31;54731;42.600;23.476;2022-07-23T13:18:32;41.88;13.34
67942;SHT31;54731;42.600;23.476;2022-07-23T13:20:58;42.07;13.60
67942;SHT31;54731;42.600;23.476;2022-07-23T13:23:26;42.35;13.46
67942;SHT31;54731;42.600;23.476;2022-07-23T13:25:52;42.35;14.28
67942;SHT31;54731;42.600;23.476;2022-07-23T13:28:19;42.21;13.52
67942;SHT31;54731;42.600;23.476;2022-07-23T13:30:46;42.21;14.27
67942;SHT31;54731;42.600;23.476;2022-07-23T13:33:12;42.48;14.08
67942;SHT31;54731;42.600;23.476;2022-07-23T13:35:38;42.55;14.84
67942;SHT31;54731;42.600;23.476;2022-07-23T13:38:05;42.21;14.68
67942;SHT31;54731;42.600;23.476;2022-07-23T13:40:34;42.08;15.54
67942;SHT31;54731;42.600;23.476;2022-07-23T13:42:59;42.00;14.30
67942;SHT31;54731;42.600;23.476;2022-07-23T13:45:25;42.00;15.48
67942;SHT31;54731;42.600;23.476;2022-07-23T13:47:50;42.35;14.08
67942;SHT31;54731;42.600;23.476;2022-07-23T13:50:16;42.71;14.93
67942;SHT31;54731;42.600;23.476;2022-07-23T13:52:42;42.80;14.25
67942;SHT31;54731;42.600;23.476;2022-07-23T13:55:08;42.93;15.84
67942;SHT31;54731;42.600;23.476;2022-07-23T13:57:33;42.89;15.24
67942;SHT31;54731;42.600;23.476;2022-07-23T13:59:59;43.29;14.52
67942;SHT31;54731;42.600;23.476;2022-07-23T14:02:25;43.40;14.39
67942;SHT31;54731;42.600;23.476;2022-07-23T14:04:51;43.22;14.24
67942;SHT31;54731;42.600;23.476;2022-07-23T14:07:17;42.95;13.76
67942;SHT31;54731;42.600;23.476;2022-07-23T14:09:43;43.06;13.88
67942;SHT31;54731;42.600;23.476;2022-07-23T14:12:08;43.02;13.54
67942;SHT31;54731;42.600;23.476;2022-07-23T14:14:34;42.89;13.67
67942;SHT31;54731;42.600;23.476;2022-07-23T14:17:00;43.29;14.36
67942;SHT31;54731;42.600;23.476;2022-07-23T14:19:25;43.19;13.60
67942;SHT31;54731;42.600;23.476;2022-07-23T14:21:51;43.32;13.84
67942;SHT31;54731;42.600;23.476;2022-07-23T14:24:17;43.66;14.64
67942;SHT31;54731;42.600;23.476;2022-07-23T14:26:42;43.83;13.78
67942;SHT31;54731;42.600;23.476;2022-07-23T14:29:08;43.03;14.76
67942;SHT31;54731;42.600;23.476;2022-07-23T14:31:34;42.90;15.96
67942;SHT31;54731;42.600;23.476;2022-07-23T14:33:59;42.68;15.48
67942;SHT31;54731;42.600;23.476;2022-07-23T14:36:25;42.71;16.58
67942;SHT31;54731;42.600;23.476;2022-07-23T14:38:51;42.98;16.80
67942;SHT31;54731;42.600;23.476;2022-07-23T14:41:17;43.05;16.90
67942;SHT31;54731;42.600;23.476;2022-07-23T14:43:43;43.15;16.16
67942;SHT31;54731;42.600;23.476;2022-07-23T14:46:09;42.90;17.35
67942;SHT31;54731;42.600;23.476;2022-07-23T14:48:36;42.38;17.97
67942;SHT31;54731;42.600;23.476;2022-07-23T14:51:01;41.88;19.08
67942;SHT31;54731;42.600;23.476;2022-07-23T14:53:27;41.96;18.42
67942;SHT31;54731;42.600;23.476;2022-07-23T14:55:52;42.03;18.59
67942;SHT31;54731;42.600;23.476;2022-07-23T14:58:18;41.94;17.82
67942;SHT31;54731;42.600;23.476;2022-07-23T15:00:43;41.40;18.13
67942;SHT31;54731;42.600;23.476;2022-07-23T15:03:09;41.53;17.36
67942;SHT31;54731;42.600;23.476;2022-07-23T15:05:34;41.42;17.09
67942;SHT31;54731;42.600;23.476;2022-07-23T15:08:00;41.19;18.08
67942;SHT31;54731;42.600;23.476;2022-07-23T15:10:25;41.19;18.37
67942;SHT31;54731;42.600;23.476;2022-07-23T15:12:50;41.12;17.93
67942;SHT31;54731;42.600;23.476;2022-07-23T15:15:16;41.05;17.69
67942;SHT31;54731;42.600;23.476;2022-07-23T15:17:42;40.64;17.42
67942;SHT31;54731;42.600;23.476;2022-07-23T15:20:11;40.78;18.29
67942;SHT31;54731;42.600;23.476;2022-07-23T15:22:36;41.33;18.36
67942;SHT31;54731;42.600;23.476;2022-07-23T15:25:02;41.49;18.35
67942;SHT31;54731;42.600;23.476;2022-07-23T15:27:28;41.88;17.79
67942;SHT31;54731;42.600;23.476;2022-07-23T15:29:53;42.17;18.11
67942;SHT31;54731;42.600;23.476;2022-07-23T15:32:19;42.30;16.95
67942;SHT31;54731;42.600;23.476;2022-07-23T15:34:44;42.30;17.18
67942;SHT31;54731;42.600;23.476;2022-07-23T15:37:10;42.23;17.71
67942;SHT31;54731;42.600;23.476;2022-07-23T15:39:35;42.52;17.88
67942;SHT31;54731;42.600;23.476;2022-07-23T15:42:01;42.71;17.44
67942;SHT31;54731;42.600;23.476;2022-07-23T15:44:27;42.76;17.09
67942;SHT31;54731;42.600;23.476;2022-07-23T15:46:52;42.63;16.88
67942;SHT31;54731;42.600;23.476;2022-07-23T15:49:18;42.48;16.99
67942;SHT31;54731;42.600;23.476;2022-07-23T15:51:44;42.54;17.23